Rechercher aéroport 
image banner adimage banner adimage banner ad
image banner ad

98PA - Pleasant Hill

Situé à Portersville, United States

ICAO - 98PA, IATA -

Données fournies par Airmate  

Information générale

Coordonnées: N40°53'40" W80°10'52"
Élévation : 1180 feet MSL.
Variation magnétique : -08° East
Voir autres Aéroports à Pennsylvania

Données opérationnelles

Special qualification required
Heure actuelle UTC:
Heure actuelle locale:
Météo à : KBVI - Beaver County ( 22 km )
METAR: KBVI 152235Z AUTO 33008KT 290V010 10SM SCT048 21/11 A2995 RMK AO2 T02080112
TAF: KBVI 151720Z 1518/1618 33010G20KT P6SM BKN040 FM152300 33008KT P6SM SCT120 FM160300 32005KT P6SM SKC
Voir NOTAMs / SUP AIP / TFR affectant cet aéroport [VIEW]
Fréquences de communication: [VIEW]

Pistes:

Identifiant RWYQFULongueur (ft)Largeur (ft)SurfaceLDA (ft)
NW1200100GRASS
SE1200100GRASS

Coordonnées de l'aéroport

Adresse: Portersville United States

Vue satellite de 98PA